Tropical Cyclones
[Index]
Main Index Home Page Stock Weather Photos Extreme Storms Discussion Storm News and Storm Chasing Reports Tropical Cyclones / Hurricanes / Typhoons Weather Data and Links Wild Fires / Bushfires Weather Observation Techniques Weather Picture Catalogue Tornado Pictures and Reports Stock Video Footage and DVDs for sale
Season 1979-1980 Tropical Cyclone SINA Track Map
Season 1979-1980 Summaries: [BoM-AU] [JTWC-AU] [JTWC-SIO] [JTWC-SPAC] [JTWC-SH]
<<- Previous TC | BoM 1979-1980 Season | Next TC ->>

click for intensity scale information  Lat/long Grid: Show Hide

 Date Labels: Show Hide

Bureau of Meteorology Tropical Cyclone Data

Name: SINA
Number: 606 / 197980_13

09 Mar 1980 00:00 UTC to 13 Mar 1980 18:00 UTC

    date/time    lat    long    hPa   cat  kts
1980-03-09 00   12.0   161.0   1005                     
1980-03-09 06   12.4   161.5   1004                     
1980-03-09 12   13.0   162.0   1004                     
1980-03-09 18   13.4   161.5   1003                     
1980-03-10 00   13.7   161.0   1003                     
1980-03-10 06   14.0   160.5   1001                     
1980-03-10 12   14.6   160.0   1000                     
1980-03-10 18   15.2   159.7    999                     
1980-03-11 00   15.9   159.4    998                     
1980-03-11 06   16.5   159.5    996                     
1980-03-11 12   17.3   159.5    995    1                
1980-03-11 18   18.2   159.7    994    1                
1980-03-12 00   18.8   160.2    993    1                
1980-03-12 06   19.6   161.0    990    1                
1980-03-12 12   20.4   161.8    987    1                
1980-03-12 18   21.2   162.8    984    2                
1980-03-13 00   22.2   164.1    981    2                
1980-03-13 06   23.3   165.5    983    2                
1980-03-13 12   24.6   167.5    986    1                
1980-03-13 18   26.0   169.5    988    1                
Winds are 10-min average.

Tropical cyclone tracks developed by Michael Bath using data from the Bureau of Meteorology and Google Maps.


[Australian Severe Weather index] [Copyright Notice] [Email Contacts] [Search This Site] [Privacy Policy]
Document: tropical_cyclone_sina.htm Updated: 30 May 2013